Main page
METAR-TAF:

METAR-TAF

Airports :

Reus Airport

Reus, Spain

latitude: 41-09N, longitude: 001-10E, elevation: 71 m

Current weather observation

The report was made 44 minutes ago, at 23:30 UTC
Wind 2 kt from variable directions
Temperature 8°C
Humidity 100%
Pressure 1007 hPa
Visibility 10 km or more
no clouds below 1500 m and no cumulonimbus

METAR: LERS 172330Z AUTO VRB02KT CAVOK 08/08 Q1007

Time: 01:14 (00:14 UTC)

Forecast

The report was made 4 hours and 14 minutes ago, at 20:00 UTC
Forecast valid from 17 at 21 UTC to 18 at 21 UTC
Wind 5 kt from the West
Visibility 10 km or more
Few clouds at a height of 4000 ft
Becoming
from 18 at 18 UTC to 18 at 20 UTC
Wind 15 kt from the West

TAF: LERS 172000Z 1721/1821 28005KT 9999 FEW040 TX15/1813Z TN05/1806Z BECMG 1818/1820 28015KT

Weather observations and forecasts of more than 4000 airports (METAR and TAF reports).

The available stations are represented by yellow and red dots on the map.

Hover mouse over dot to see the name of the station.

Then click to see weather observations and forecasts.

To change the map : click on the green buttons with a black cross to zoom in, on the green button with a dash to zoom out, or on the green arrows for adjacent maps.


METAR-TAF: